sensor_id;sensor_type;location;lat;lon;timestamp;P1;durP1;ratioP1;P2;durP2;ratioP2
22040;SDS011;11184;52.444;13.578;2024-02-15T00:02:24;7.93;;;7.13;;
22040;SDS011;11184;52.444;13.578;2024-02-15T00:05:09;6.40;;;5.78;;
22040;SDS011;11184;52.444;13.578;2024-02-15T00:07:53;7.18;;;6.57;;
22040;SDS011;11184;52.444;13.578;2024-02-15T00:10:38;6.53;;;6.03;;
22040;SDS011;11184;52.444;13.578;2024-02-15T00:13:23;8.38;;;7.60;;
22040;SDS011;11184;52.444;13.578;2024-02-15T00:16:07;8.80;;;7.40;;
22040;SDS011;11184;52.444;13.578;2024-02-15T00:18:52;7.63;;;6.68;;
22040;SDS011;11184;52.444;13.578;2024-02-15T00:21:42;7.50;;;6.90;;
22040;SDS011;11184;52.444;13.578;2024-02-15T00:24:27;6.90;;;6.25;;
22040;SDS011;11184;52.444;13.578;2024-02-15T00:27:11;6.65;;;6.10;;
22040;SDS011;11184;52.444;13.578;2024-02-15T00:29:56;8.45;;;7.45;;
22040;SDS011;11184;52.444;13.578;2024-02-15T00:32:40;7.00;;;5.88;;
22040;SDS011;11184;52.444;13.578;2024-02-15T00:35:25;7.40;;;6.75;;
22040;SDS011;11184;52.444;13.578;2024-02-15T00:38:10;7.00;;;6.40;;
22040;SDS011;11184;52.444;13.578;2024-02-15T00:40:55;7.53;;;6.78;;
22040;SDS011;11184;52.444;13.578;2024-02-15T00:43:40;9.00;;;6.85;;
22040;SDS011;11184;52.444;13.578;2024-02-15T00:46:24;6.57;;;6.07;;
22040;SDS011;11184;52.444;13.578;2024-02-15T00:49:12;7.68;;;7.00;;
22040;SDS011;11184;52.444;13.578;2024-02-15T00:51:58;7.63;;;6.95;;
22040;SDS011;11184;52.444;13.578;2024-02-15T00:54:42;8.23;;;7.53;;
22040;SDS011;11184;52.444;13.578;2024-02-15T00:57:27;7.60;;;7.00;;
22040;SDS011;11184;52.444;13.578;2024-02-15T01:00:11;8.65;;;7.88;;
22040;SDS011;11184;52.444;13.578;2024-02-15T01:02:56;6.80;;;6.30;;
22040;SDS011;11184;52.444;13.578;2024-02-15T01:05:42;9.32;;;7.82;;
22040;SDS011;11184;52.444;13.578;2024-02-15T01:08:27;9.23;;;8.15;;
22040;SDS011;11184;52.444;13.578;2024-02-15T01:11:11;6.85;;;6.35;;
22040;SDS011;11184;52.444;13.578;2024-02-15T01:13:57;8.85;;;7.68;;
22040;SDS011;11184;52.444;13.578;2024-02-15T01:16:42;10.25;;;8.77;;
22040;SDS011;11184;52.444;13.578;2024-02-15T01:19:28;9.15;;;8.23;;
22040;SDS011;11184;52.444;13.578;2024-02-15T01:22:12;9.57;;;8.65;;
22040;SDS011;11184;52.444;13.578;2024-02-15T01:24:57;9.35;;;8.45;;
22040;SDS011;11184;52.444;13.578;2024-02-15T01:27:41;9.27;;;8.48;;
22040;SDS011;11184;52.444;13.578;2024-02-15T01:30:26;10.50;;;9.18;;
22040;SDS011;11184;52.444;13.578;2024-02-15T01:33:12;10.00;;;9.10;;
22040;SDS011;11184;52.444;13.578;2024-02-15T01:35:57;9.88;;;9.07;;
22040;SDS011;11184;52.444;13.578;2024-02-15T01:38:42;12.23;;;10.48;;
22040;SDS011;11184;52.444;13.578;2024-02-15T01:41:26;11.43;;;10.32;;
22040;SDS011;11184;52.444;13.578;2024-02-15T01:44:11;10.55;;;9.65;;
22040;SDS011;11184;52.444;13.578;2024-02-15T01:46:55;12.15;;;10.95;;
22040;SDS011;11184;52.444;13.578;2024-02-15T01:49:40;10.50;;;9.52;;
22040;SDS011;11184;52.444;13.578;2024-02-15T01:52:25;11.18;;;10.18;;
22040;SDS011;11184;52.444;13.578;2024-02-15T01:55:11;11.85;;;10.95;;
22040;SDS011;11184;52.444;13.578;2024-02-15T01:57:56;23.58;;;11.80;;
22040;SDS011;11184;52.444;13.578;2024-02-15T02:00:40;13.93;;;12.65;;
22040;SDS011;11184;52.444;13.578;2024-02-15T02:03:25;14.45;;;13.05;;
22040;SDS011;11184;52.444;13.578;2024-02-15T02:06:09;13.60;;;12.32;;
22040;SDS011;11184;52.444;13.578;2024-02-15T02:08:55;13.63;;;12.38;;
22040;SDS011;11184;52.444;13.578;2024-02-15T02:11:40;14.13;;;12.82;;
22040;SDS011;11184;52.444;13.578;2024-02-15T02:14:25;14.10;;;12.85;;
22040;SDS011;11184;52.444;13.578;2024-02-15T02:17:10;14.63;;;13.13;;
22040;SDS011;11184;52.444;13.578;2024-02-15T02:19:56;16.08;;;13.93;;
22040;SDS011;11184;52.444;13.578;2024-02-15T02:22:41;14.55;;;13.10;;
22040;SDS011;11184;52.444;13.578;2024-02-15T02:25:29;13.93;;;12.55;;
22040;SDS011;11184;52.444;13.578;2024-02-15T02:28:13;14.20;;;12.95;;
22040;SDS011;11184;52.444;13.578;2024-02-15T02:30:59;15.27;;;13.88;;
22040;SDS011;11184;52.444;13.578;2024-02-15T02:33:48;14.73;;;13.43;;
22040;SDS011;11184;52.444;13.578;2024-02-15T02:36:35;15.15;;;13.73;;
22040;SDS011;11184;52.444;13.578;2024-02-15T02:39:19;14.50;;;13.30;;
22040;SDS011;11184;52.444;13.578;2024-02-15T02:42:06;14.05;;;12.80;;
22040;SDS011;11184;52.444;13.578;2024-02-15T02:44:51;15.02;;;13.77;;
22040;SDS011;11184;52.444;13.578;2024-02-15T02:47:36;14.43;;;13.23;;
22040;SDS011;11184;52.444;13.578;2024-02-15T02:50:20;15.30;;;13.90;;
22040;SDS011;11184;52.444;13.578;2024-02-15T02:53:06;16.65;;;14.27;;
22040;SDS011;11184;52.444;13.578;2024-02-15T02:55:54;22.58;;;16.42;;
22040;SDS011;11184;52.444;13.578;2024-02-15T02:58:39;15.23;;;13.93;;
22040;SDS011;11184;52.444;13.578;2024-02-15T03:01:27;15.13;;;13.73;;
22040;SDS011;11184;52.444;13.578;2024-02-15T03:04:12;15.73;;;14.23;;
22040;SDS011;11184;52.444;13.578;2024-02-15T03:07:00;16.60;;;14.88;;
22040;SDS011;11184;52.444;13.578;2024-02-15T03:09:45;16.13;;;14.30;;
22040;SDS011;11184;52.444;13.578;2024-02-15T03:12:30;16.27;;;14.73;;
22040;SDS011;11184;52.444;13.578;2024-02-15T03:15:16;15.60;;;14.18;;
22040;SDS011;11184;52.444;13.578;2024-02-15T03:18:01;15.35;;;13.75;;
22040;SDS011;11184;52.444;13.578;2024-02-15T03:20:50;16.15;;;14.75;;
22040;SDS011;11184;52.444;13.578;2024-02-15T03:23:35;17.83;;;13.93;;
22040;SDS011;11184;52.444;13.578;2024-02-15T03:26:29;16.25;;;14.15;;
22040;SDS011;11184;52.444;13.578;2024-02-15T03:29:20;15.73;;;14.13;;
22040;SDS011;11184;52.444;13.578;2024-02-15T03:32:06;16.90;;;15.23;;
22040;SDS011;11184;52.444;13.578;2024-02-15T03:34:51;16.33;;;14.60;;
22040;SDS011;11184;52.444;13.578;2024-02-15T03:37:38;14.63;;;13.25;;
22040;SDS011;11184;52.444;13.578;2024-02-15T03:40:24;16.60;;;15.15;;
22040;SDS011;11184;52.444;13.578;2024-02-15T03:43:10;15.75;;;14.38;;
22040;SDS011;11184;52.444;13.578;2024-02-15T03:45:54;16.52;;;15.13;;
22040;SDS011;11184;52.444;13.578;2024-02-15T03:48:40;15.68;;;14.20;;
22040;SDS011;11184;52.444;13.578;2024-02-15T03:51:25;19.98;;;16.02;;
22040;SDS011;11184;52.444;13.578;2024-02-15T03:54:10;16.88;;;15.27;;
22040;SDS011;11184;52.444;13.578;2024-02-15T03:56:54;18.05;;;16.38;;
22040;SDS011;11184;52.444;13.578;2024-02-15T03:59:41;16.00;;;14.50;;
22040;SDS011;11184;52.444;13.578;2024-02-15T04:02:26;16.58;;;14.98;;
22040;SDS011;11184;52.444;13.578;2024-02-15T04:05:12;15.55;;;14.23;;
22040;SDS011;11184;52.444;13.578;2024-02-15T04:07:56;16.60;;;15.10;;
22040;SDS011;11184;52.444;13.578;2024-02-15T04:10:42;15.43;;;13.82;;
22040;SDS011;11184;52.444;13.578;2024-02-15T04:13:29;17.00;;;15.23;;
22040;SDS011;11184;52.444;13.578;2024-02-15T04:16:13;16.95;;;15.27;;
22040;SDS011;11184;52.444;13.578;2024-02-15T04:18:59;16.63;;;15.02;;
22040;SDS011;11184;52.444;13.578;2024-02-15T04:21:45;17.80;;;15.70;;
22040;SDS011;11184;52.444;13.578;2024-02-15T04:24:31;18.02;;;16.15;;
22040;SDS011;11184;52.444;13.578;2024-02-15T04:27:15;18.48;;;16.67;;
22040;SDS011;11184;52.444;13.578;2024-02-15T04:30:04;17.38;;;15.73;;
22040;SDS011;11184;52.444;13.578;2024-02-15T04:32:53;18.38;;;16.67;;
22040;SDS011;11184;52.444;13.578;2024-02-15T04:35:37;16.95;;;15.45;;
22040;SDS011;11184;52.444;13.578;2024-02-15T04:38:22;18.55;;;16.77;;
22040;SDS011;11184;52.444;13.578;2024-02-15T04:41:08;20.95;;;17.00;;
22040;SDS011;11184;52.444;13.578;2024-02-15T04:43:53;21.70;;;18.45;;
22040;SDS011;11184;52.444;13.578;2024-02-15T04:46:38;20.75;;;18.27;;
22040;SDS011;11184;52.444;13.578;2024-02-15T04:49:22;20.08;;;15.60;;
22040;SDS011;11184;52.444;13.578;2024-02-15T04:52:07;17.13;;;15.38;;
22040;SDS011;11184;52.444;13.578;2024-02-15T04:54:53;18.08;;;15.75;;
22040;SDS011;11184;52.444;13.578;2024-02-15T04:57:38;17.67;;;15.93;;
22040;SDS011;11184;52.444;13.578;2024-02-15T05:00:24;16.33;;;14.85;;
22040;SDS011;11184;52.444;13.578;2024-02-15T05:03:09;19.02;;;17.08;;
22040;SDS011;11184;52.444;13.578;2024-02-15T05:05:53;19.00;;;17.08;;
22040;SDS011;11184;52.444;13.578;2024-02-15T05:08:38;18.52;;;16.63;;
22040;SDS011;11184;52.444;13.578;2024-02-15T05:11:26;19.30;;;17.45;;
22040;SDS011;11184;52.444;13.578;2024-02-15T05:14:13;19.48;;;17.67;;
22040;SDS011;11184;52.444;13.578;2024-02-15T05:17:02;19.08;;;16.98;;
22040;SDS011;11184;52.444;13.578;2024-02-15T05:19:47;20.85;;;17.75;;
22040;SDS011;11184;52.444;13.578;2024-02-15T05:22:31;18.08;;;16.33;;
22040;SDS011;11184;52.444;13.578;2024-02-15T05:25:18;19.08;;;17.10;;
22040;SDS011;11184;52.444;13.578;2024-02-15T05:28:06;19.63;;;17.55;;
22040;SDS011;11184;52.444;13.578;2024-02-15T05:33:56;19.52;;;17.55;;
22040;SDS011;11184;52.444;13.578;2024-02-15T05:36:41;16.95;;;15.18;;
22040;SDS011;11184;52.444;13.578;2024-02-15T05:39:26;18.50;;;16.33;;
22040;SDS011;11184;52.444;13.578;2024-02-15T05:42:10;20.25;;;18.02;;
22040;SDS011;11184;52.444;13.578;2024-02-15T05:44:55;17.52;;;15.93;;
22040;SDS011;11184;52.444;13.578;2024-02-15T05:47:39;20.73;;;18.45;;
22040;SDS011;11184;52.444;13.578;2024-02-15T05:50:24;19.88;;;18.02;;
22040;SDS011;11184;52.444;13.578;2024-02-15T05:53:11;22.38;;;17.60;;
22040;SDS011;11184;52.444;13.578;2024-02-15T05:55:56;18.70;;;16.60;;
22040;SDS011;11184;52.444;13.578;2024-02-15T05:58:41;17.30;;;15.50;;
22040;SDS011;11184;52.444;13.578;2024-02-15T06:01:26;21.05;;;18.85;;
22040;SDS011;11184;52.444;13.578;2024-02-15T06:04:12;20.13;;;17.95;;
22040;SDS011;11184;52.444;13.578;2024-02-15T06:06:57;18.17;;;16.33;;
22040;SDS011;11184;52.444;13.578;2024-02-15T06:09:44;20.95;;;18.67;;
22040;SDS011;11184;52.444;13.578;2024-02-15T06:12:29;23.83;;;18.30;;
22040;SDS011;11184;52.444;13.578;2024-02-15T06:15:15;19.25;;;16.83;;
22040;SDS011;11184;52.444;13.578;2024-02-15T06:17:59;20.95;;;18.05;;
22040;SDS011;11184;52.444;13.578;2024-02-15T06:20:44;18.75;;;17.05;;
22040;SDS011;11184;52.444;13.578;2024-02-15T06:23:33;18.65;;;16.73;;
22040;SDS011;11184;52.444;13.578;2024-02-15T06:26:18;20.80;;;18.58;;
22040;SDS011;11184;52.444;13.578;2024-02-15T06:29:04;19.35;;;17.30;;
22040;SDS011;11184;52.444;13.578;2024-02-15T06:32:08;20.65;;;18.10;;
22040;SDS011;11184;52.444;13.578;2024-02-15T06:35:11;19.85;;;17.13;;
22040;SDS011;11184;52.444;13.578;2024-02-15T06:38:14;20.52;;;17.23;;
22040;SDS011;11184;52.444;13.578;2024-02-15T06:41:18;20.85;;;18.35;;
22040;SDS011;11184;52.444;13.578;2024-02-15T06:44:02;20.27;;;17.58;;
22040;SDS011;11184;52.444;13.578;2024-02-15T06:46:47;21.50;;;19.23;;
22040;SDS011;11184;52.444;13.578;2024-02-15T06:49:33;19.67;;;17.73;;
22040;SDS011;11184;52.444;13.578;2024-02-15T06:52:18;21.05;;;18.92;;
22040;SDS011;11184;52.444;13.578;2024-02-15T06:55:03;19.63;;;17.63;;
22040;SDS011;11184;52.444;13.578;2024-02-15T06:57:48;20.20;;;18.02;;
22040;SDS011;11184;52.444;13.578;2024-02-15T07:00:33;19.98;;;18.02;;
22040;SDS011;11184;52.444;13.578;2024-02-15T07:03:17;19.27;;;17.42;;
22040;SDS011;11184;52.444;13.578;2024-02-15T07:06:02;18.83;;;16.25;;
22040;SDS011;11184;52.444;13.578;2024-02-15T07:08:47;18.63;;;16.70;;
22040;SDS011;11184;52.444;13.578;2024-02-15T07:11:34;17.17;;;15.57;;
22040;SDS011;11184;52.444;13.578;2024-02-15T07:14:19;20.77;;;17.35;;
22040;SDS011;11184;52.444;13.578;2024-02-15T07:17:03;18.35;;;15.20;;
22040;SDS011;11184;52.444;13.578;2024-02-15T07:19:48;17.90;;;15.45;;
22040;SDS011;11184;52.444;13.578;2024-02-15T07:22:32;14.88;;;13.45;;
22040;SDS011;11184;52.444;13.578;2024-02-15T07:25:17;19.70;;;15.30;;
22040;SDS011;11184;52.444;13.578;2024-02-15T07:28:02;14.73;;;13.43;;
22040;SDS011;11184;52.444;13.578;2024-02-15T07:30:48;20.38;;;18.30;;
22040;SDS011;11184;52.444;13.578;2024-02-15T07:33:34;15.13;;;13.68;;
22040;SDS011;11184;52.444;13.578;2024-02-15T07:36:19;15.45;;;14.02;;
22040;SDS011;11184;52.444;13.578;2024-02-15T07:39:07;17.00;;;14.13;;
22040;SDS011;11184;52.444;13.578;2024-02-15T07:41:55;14.93;;;12.13;;
22040;SDS011;11184;52.444;13.578;2024-02-15T07:44:41;16.85;;;15.13;;
22040;SDS011;11184;52.444;13.578;2024-02-15T07:47:26;14.27;;;12.88;;
22040;SDS011;11184;52.444;13.578;2024-02-15T07:50:15;13.63;;;12.27;;
22040;SDS011;11184;52.444;13.578;2024-02-15T07:53:03;12.55;;;11.48;;
22040;SDS011;11184;52.444;13.578;2024-02-15T07:55:51;12.52;;;11.43;;
22040;SDS011;11184;52.444;13.578;2024-02-15T07:58:39;15.05;;;12.55;;
22040;SDS011;11184;52.444;13.578;2024-02-15T08:01:25;13.00;;;11.77;;
22040;SDS011;11184;52.444;13.578;2024-02-15T08:04:09;22.13;;;19.05;;
22040;SDS011;11184;52.444;13.578;2024-02-15T08:06:54;13.68;;;12.40;;
22040;SDS011;11184;52.444;13.578;2024-02-15T08:09:39;16.60;;;12.75;;
22040;SDS011;11184;52.444;13.578;2024-02-15T08:12:24;12.23;;;10.93;;
22040;SDS011;11184;52.444;13.578;2024-02-15T08:15:10;12.73;;;11.63;;
22040;SDS011;11184;52.444;13.578;2024-02-15T08:17:58;11.95;;;10.90;;
22040;SDS011;11184;52.444;13.578;2024-02-15T08:20:44;12.85;;;11.55;;
22040;SDS011;11184;52.444;13.578;2024-02-15T08:23:29;12.70;;;11.57;;
22040;SDS011;11184;52.444;13.578;2024-02-15T08:26:14;12.75;;;11.50;;
22040;SDS011;11184;52.444;13.578;2024-02-15T08:29:00;11.63;;;10.57;;
22040;SDS011;11184;52.444;13.578;2024-02-15T08:31:46;18.05;;;10.82;;
22040;SDS011;11184;52.444;13.578;2024-02-15T08:34:32;11.82;;;10.52;;
22040;SDS011;11184;52.444;13.578;2024-02-15T08:37:17;11.02;;;10.02;;
22040;SDS011;11184;52.444;13.578;2024-02-15T08:40:03;20.45;;;15.02;;
22040;SDS011;11184;52.444;13.578;2024-02-15T08:42:48;12.88;;;9.95;;
22040;SDS011;11184;52.444;13.578;2024-02-15T08:45:33;11.77;;;10.68;;
22040;SDS011;11184;52.444;13.578;2024-02-15T08:48:19;10.48;;;9.27;;
22040;SDS011;11184;52.444;13.578;2024-02-15T08:51:06;17.00;;;10.70;;
22040;SDS011;11184;52.444;13.578;2024-02-15T08:53:52;11.40;;;10.48;;
22040;SDS011;11184;52.444;13.578;2024-02-15T08:56:37;11.52;;;7.95;;
22040;SDS011;11184;52.444;13.578;2024-02-15T08:59:21;11.15;;;9.10;;
22040;SDS011;11184;52.444;13.578;2024-02-15T09:02:06;10.00;;;8.48;;
22040;SDS011;11184;52.444;13.578;2024-02-15T09:04:50;11.48;;;10.52;;
22040;SDS011;11184;52.444;13.578;2024-02-15T09:07:41;11.55;;;10.50;;
22040;SDS011;11184;52.444;13.578;2024-02-15T09:10:26;10.70;;;9.63;;
22040;SDS011;11184;52.444;13.578;2024-02-15T09:13:11;10.15;;;9.18;;
22040;SDS011;11184;52.444;13.578;2024-02-15T09:15:56;9.25;;;8.52;;
22040;SDS011;11184;52.444;13.578;2024-02-15T09:18:40;10.90;;;9.88;;
22040;SDS011;11184;52.444;13.578;2024-02-15T09:21:29;9.48;;;8.57;;
22040;SDS011;11184;52.444;13.578;2024-02-15T09:24:13;9.18;;;8.38;;
22040;SDS011;11184;52.444;13.578;2024-02-15T09:26:59;9.20;;;8.43;;
22040;SDS011;11184;52.444;13.578;2024-02-15T09:29:44;9.77;;;8.75;;
22040;SDS011;11184;52.444;13.578;2024-02-15T09:32:29;9.23;;;8.48;;
22040;SDS011;11184;52.444;13.578;2024-02-15T09:35:14;9.25;;;8.35;;
22040;SDS011;11184;52.444;13.578;2024-02-15T09:37:59;9.05;;;7.88;;
22040;SDS011;11184;52.444;13.578;2024-02-15T09:40:43;7.90;;;7.10;;
22040;SDS011;11184;52.444;13.578;2024-02-15T09:43:28;9.02;;;8.13;;
22040;SDS011;11184;52.444;13.578;2024-02-15T09:46:13;9.45;;;8.55;;
22040;SDS011;11184;52.444;13.578;2024-02-15T09:48:58;7.57;;;6.97;;
22040;SDS011;11184;52.444;13.578;2024-02-15T09:51:43;8.60;;;7.72;;
22040;SDS011;11184;52.444;13.578;2024-02-15T09:54:28;9.02;;;8.25;;
22040;SDS011;11184;52.444;13.578;2024-02-15T09:57:13;8.93;;;8.15;;
22040;SDS011;11184;52.444;13.578;2024-02-15T09:59:58;8.55;;;7.80;;
22040;SDS011;11184;52.444;13.578;2024-02-15T10:02:44;7.90;;;7.30;;
22040;SDS011;11184;52.444;13.578;2024-02-15T10:05:29;8.30;;;7.50;;
22040;SDS011;11184;52.444;13.578;2024-02-15T10:08:15;9.02;;;8.13;;
22040;SDS011;11184;52.444;13.578;2024-02-15T10:11:07;8.25;;;7.55;;
22040;SDS011;11184;52.444;13.578;2024-02-15T10:13:52;7.43;;;6.53;;
22040;SDS011;11184;52.444;13.578;2024-02-15T10:16:37;6.97;;;6.40;;
22040;SDS011;11184;52.444;13.578;2024-02-15T10:19:22;6.35;;;5.80;;
22040;SDS011;11184;52.444;13.578;2024-02-15T10:22:11;31.48;;;22.95;;
22040;SDS011;11184;52.444;13.578;2024-02-15T10:25:12;7.22;;;6.63;;
22040;SDS011;11184;52.444;13.578;2024-02-15T10:28:10;8.45;;;7.65;;
22040;SDS011;11184;52.444;13.578;2024-02-15T10:30:57;7.40;;;6.68;;
22040;SDS011;11184;52.444;13.578;2024-02-15T10:33:59;7.35;;;6.75;;
22040;SDS011;11184;52.444;13.578;2024-02-15T10:36:46;6.03;;;5.07;;
22040;SDS011;11184;52.444;13.578;2024-02-15T10:39:30;7.75;;;6.85;;
22040;SDS011;11184;52.444;13.578;2024-02-15T10:42:17;6.40;;;5.80;;
22040;SDS011;11184;52.444;13.578;2024-02-15T10:45:03;7.22;;;6.50;;
22040;SDS011;11184;52.444;13.578;2024-02-15T10:47:54;23.70;;;16.48;;
22040;SDS011;11184;52.444;13.578;2024-02-15T10:50:41;5.88;;;5.35;;
22040;SDS011;11184;52.444;13.578;2024-02-15T10:53:30;6.43;;;5.72;;
22040;SDS011;11184;52.444;13.578;2024-02-15T10:56:19;9.20;;;6.43;;
22040;SDS011;11184;52.444;13.578;2024-02-15T10:59:12;24.70;;;19.90;;
22040;SDS011;11184;52.444;13.578;2024-02-15T11:02:00;7.50;;;5.38;;
22040;SDS011;11184;52.444;13.578;2024-02-15T11:04:48;6.18;;;5.57;;
22040;SDS011;11184;52.444;13.578;2024-02-15T11:07:40;9.07;;;8.20;;
22040;SDS011;11184;52.444;13.578;2024-02-15T11:10:25;9.18;;;8.30;;
22040;SDS011;11184;52.444;13.578;2024-02-15T11:13:10;12.25;;;11.05;;
22040;SDS011;11184;52.444;13.578;2024-02-15T11:15:58;10.35;;;7.88;;
22040;SDS011;11184;52.444;13.578;2024-02-15T11:18:43;6.38;;;5.78;;
22040;SDS011;11184;52.444;13.578;2024-02-15T11:24:32;6.82;;;5.80;;
22040;SDS011;11184;52.444;13.578;2024-02-15T11:27:29;5.70;;;4.95;;
22040;SDS011;11184;52.444;13.578;2024-02-15T11:30:15;7.45;;;5.85;;
22040;SDS011;11184;52.444;13.578;2024-02-15T11:36:11;5.13;;;4.60;;
22040;SDS011;11184;52.444;13.578;2024-02-15T11:38:56;6.57;;;5.22;;
22040;SDS011;11184;52.444;13.578;2024-02-15T11:41:41;4.95;;;4.55;;
22040;SDS011;11184;52.444;13.578;2024-02-15T11:44:25;4.95;;;4.40;;
22040;SDS011;11184;52.444;13.578;2024-02-15T11:47:11;4.03;;;3.10;;
22040;SDS011;11184;52.444;13.578;2024-02-15T11:49:56;8.23;;;4.38;;
22040;SDS011;11184;52.444;13.578;2024-02-15T11:52:41;4.20;;;3.80;;
22040;SDS011;11184;52.444;13.578;2024-02-15T11:55:26;4.00;;;3.60;;
22040;SDS011;11184;52.444;13.578;2024-02-15T11:58:10;3.70;;;3.40;;
22040;SDS011;11184;52.444;13.578;2024-02-15T12:00:59;4.40;;;4.00;;
22040;SDS011;11184;52.444;13.578;2024-02-15T12:04:02;5.25;;;4.75;;
22040;SDS011;11184;52.444;13.578;2024-02-15T12:07:06;6.68;;;3.60;;
22040;SDS011;11184;52.444;13.578;2024-02-15T12:10:16;5.30;;;4.68;;
22040;SDS011;11184;52.444;13.578;2024-02-15T12:13:20;4.43;;;4.07;;
22040;SDS011;11184;52.444;13.578;2024-02-15T12:16:23;7.47;;;3.45;;
22040;SDS011;11184;52.444;13.578;2024-02-15T12:19:27;4.97;;;4.05;;
22040;SDS011;11184;52.444;13.578;2024-02-15T12:22:11;4.15;;;3.70;;
22040;SDS011;11184;52.444;13.578;2024-02-15T12:24:57;5.45;;;3.97;;
22040;SDS011;11184;52.444;13.578;2024-02-15T12:27:42;5.00;;;4.45;;
22040;SDS011;11184;52.444;13.578;2024-02-15T12:30:33;6.97;;;5.78;;
22040;SDS011;11184;52.444;13.578;2024-02-15T12:33:20;8.27;;;7.35;;
22040;SDS011;11184;52.444;13.578;2024-02-15T12:36:06;5.43;;;4.13;;
22040;SDS011;11184;52.444;13.578;2024-02-15T12:39:01;6.07;;;3.47;;
22040;SDS011;11184;52.444;13.578;2024-02-15T12:41:49;7.25;;;2.80;;
22040;SDS011;11184;52.444;13.578;2024-02-15T12:44:35;6.65;;;4.32;;
22040;SDS011;11184;52.444;13.578;2024-02-15T12:47:20;7.28;;;2.70;;
22040;SDS011;11184;52.444;13.578;2024-02-15T12:50:15;5.50;;;3.00;;
22040;SDS011;11184;52.444;13.578;2024-02-15T12:53:01;3.00;;;2.65;;
22040;SDS011;11184;52.444;13.578;2024-02-15T12:55:51;3.38;;;3.05;;
22040;SDS011;11184;52.444;13.578;2024-02-15T12:58:38;3.53;;;2.90;;
22040;SDS011;11184;52.444;13.578;2024-02-15T13:01:24;3.33;;;3.03;;
22040;SDS011;11184;52.444;13.578;2024-02-15T13:04:10;3.13;;;2.00;;
22040;SDS011;11184;52.444;13.578;2024-02-15T13:07:05;5.65;;;1.75;;
22040;SDS011;11184;52.444;13.578;2024-02-15T13:09:51;3.80;;;2.03;;
22040;SDS011;11184;52.444;13.578;2024-02-15T13:12:42;7.47;;;3.17;;
22040;SDS011;11184;52.444;13.578;2024-02-15T13:15:30;3.67;;;2.25;;
22040;SDS011;11184;52.444;13.578;2024-02-15T13:18:17;7.10;;;1.83;;
22040;SDS011;11184;52.444;13.578;2024-02-15T13:21:02;8.98;;;2.58;;
22040;SDS011;11184;52.444;13.578;2024-02-15T13:23:49;4.72;;;2.53;;
22040;SDS011;11184;52.444;13.578;2024-02-15T13:26:33;2.40;;;1.90;;
22040;SDS011;11184;52.444;13.578;2024-02-15T13:29:18;1.75;;;1.17;;
22040;SDS011;11184;52.444;13.578;2024-02-15T13:32:05;4.45;;;1.50;;
22040;SDS011;11184;52.444;13.578;2024-02-15T13:34:50;8.98;;;1.00;;
22040;SDS011;11184;52.444;13.578;2024-02-15T13:37:35;5.10;;;1.65;;
22040;SDS011;11184;52.444;13.578;2024-02-15T13:40:21;2.53;;;1.35;;
22040;SDS011;11184;52.444;13.578;2024-02-15T13:43:07;1.95;;;1.05;;
22040;SDS011;11184;52.444;13.578;2024-02-15T13:45:52;3.47;;;1.33;;
22040;SDS011;11184;52.444;13.578;2024-02-15T13:48:37;2.20;;;1.10;;
22040;SDS011;11184;52.444;13.578;2024-02-15T13:51:22;1.80;;;1.00;;
22040;SDS011;11184;52.444;13.578;2024-02-15T13:54:06;2.90;;;1.92;;
22040;SDS011;11184;52.444;13.578;2024-02-15T13:56:51;3.30;;;1.58;;
22040;SDS011;11184;52.444;13.578;2024-02-15T13:59:36;1.65;;;1.10;;
22040;SDS011;11184;52.444;13.578;2024-02-15T14:02:21;2.83;;;1.50;;
22040;SDS011;11184;52.444;13.578;2024-02-15T14:05:05;3.15;;;2.47;;
22040;SDS011;11184;52.444;13.578;2024-02-15T14:07:52;2.80;;;1.00;;
22040;SDS011;11184;52.444;13.578;2024-02-15T14:10:38;1.48;;;1.15;;
22040;SDS011;11184;52.444;13.578;2024-02-15T14:13:23;5.95;;;1.30;;
22040;SDS011;11184;52.444;13.578;2024-02-15T14:16:08;3.40;;;0.93;;
22040;SDS011;11184;52.444;13.578;2024-02-15T14:18:53;1.35;;;1.05;;
22040;SDS011;11184;52.444;13.578;2024-02-15T14:21:38;3.10;;;1.10;;
22040;SDS011;11184;52.444;13.578;2024-02-15T14:24:25;2.55;;;1.33;;
22040;SDS011;11184;52.444;13.578;2024-02-15T14:27:10;5.03;;;2.00;;
22040;SDS011;11184;52.444;13.578;2024-02-15T14:29:55;3.35;;;2.08;;
22040;SDS011;11184;52.444;13.578;2024-02-15T14:32:59;7.00;;;1.75;;
22040;SDS011;11184;52.444;13.578;2024-02-15T14:35:44;5.07;;;1.30;;
22040;SDS011;11184;52.444;13.578;2024-02-15T14:38:29;4.13;;;1.65;;
22040;SDS011;11184;52.444;13.578;2024-02-15T14:41:14;3.55;;;1.35;;
22040;SDS011;11184;52.444;13.578;2024-02-15T14:43:59;5.30;;;1.23;;
22040;SDS011;11184;52.444;13.578;2024-02-15T14:46:44;2.47;;;1.52;;
22040;SDS011;11184;52.444;13.578;2024-02-15T14:49:30;2.83;;;2.00;;
22040;SDS011;11184;52.444;13.578;2024-02-15T14:52:14;5.03;;;1.92;;
22040;SDS011;11184;52.444;13.578;2024-02-15T14:54:59;3.05;;;1.80;;
22040;SDS011;11184;52.444;13.578;2024-02-15T14:57:43;2.45;;;1.33;;
22040;SDS011;11184;52.444;13.578;2024-02-15T15:00:28;5.32;;;1.85;;
22040;SDS011;11184;52.444;13.578;2024-02-15T15:03:12;2.08;;;1.60;;
22040;SDS011;11184;52.444;13.578;2024-02-15T15:05:57;3.77;;;1.73;;
22040;SDS011;11184;52.444;13.578;2024-02-15T15:09:01;3.50;;;1.80;;
22040;SDS011;11184;52.444;13.578;2024-02-15T15:12:05;6.05;;;2.25;;
22040;SDS011;11184;52.444;13.578;2024-02-15T15:15:09;2.50;;;1.85;;
22040;SDS011;11184;52.444;13.578;2024-02-15T15:17:56;3.35;;;1.85;;
22040;SDS011;11184;52.444;13.578;2024-02-15T15:20:40;7.40;;;1.58;;
22040;SDS011;11184;52.444;13.578;2024-02-15T15:23:28;2.95;;;1.70;;
22040;SDS011;11184;52.444;13.578;2024-02-15T15:26:19;2.97;;;1.55;;
22040;SDS011;11184;52.444;13.578;2024-02-15T15:29:04;9.13;;;2.42;;
22040;SDS011;11184;52.444;13.578;2024-02-15T15:31:49;4.22;;;1.40;;
22040;SDS011;11184;52.444;13.578;2024-02-15T15:34:35;2.85;;;2.00;;
22040;SDS011;11184;52.444;13.578;2024-02-15T15:37:21;11.50;;;2.00;;
22040;SDS011;11184;52.444;13.578;2024-02-15T15:40:06;7.88;;;2.22;;
22040;SDS011;11184;52.444;13.578;2024-02-15T15:42:52;3.42;;;2.28;;
22040;SDS011;11184;52.444;13.578;2024-02-15T15:45:38;9.65;;;2.40;;
22040;SDS011;11184;52.444;13.578;2024-02-15T15:48:23;6.45;;;1.45;;
22040;SDS011;11184;52.444;13.578;2024-02-15T15:51:08;8.18;;;1.88;;
22040;SDS011;11184;52.444;13.578;2024-02-15T15:53:54;4.88;;;2.30;;
22040;SDS011;11184;52.444;13.578;2024-02-15T15:56:39;5.00;;;1.77;;
22040;SDS011;11184;52.444;13.578;2024-02-15T15:59:24;6.35;;;2.20;;
22040;SDS011;11184;52.444;13.578;2024-02-15T16:02:08;5.63;;;2.53;;
22040;SDS011;11184;52.444;13.578;2024-02-15T16:04:53;6.47;;;2.38;;
22040;SDS011;11184;52.444;13.578;2024-02-15T16:07:41;3.10;;;2.25;;
22040;SDS011;11184;52.444;13.578;2024-02-15T16:10:26;5.07;;;2.63;;
22040;SDS011;11184;52.444;13.578;2024-02-15T16:13:11;6.07;;;2.70;;
22040;SDS011;11184;52.444;13.578;2024-02-15T16:15:56;6.80;;;3.08;;
22040;SDS011;11184;52.444;13.578;2024-02-15T16:18:41;3.55;;;2.60;;
22040;SDS011;11184;52.444;13.578;2024-02-15T16:21:26;11.35;;;2.47;;
22040;SDS011;11184;52.444;13.578;2024-02-15T16:24:10;4.65;;;2.80;;